Happy Valentine's Day! 

Flight Track Log - Related Links

Times and Time Zones

All times are in EDT time to prevent confusion due to time zone crossing. See the EJA922 flight status page for this flight to view local times or setup timezone preferences in your user account.


Time Position Orientation Groundspeed Altitude Reporting Facility
EDT Latitude Longitude Course Direction KTS MPH feet Rate Location/Type
Wed 12:50:44 PM 39.3111 -81.4586 204° Southwest 239 275 3,200  Level Indianapolis Center
Wed 12:51:45 PM 39.2564 -81.5175 220° Southwest 257 296 7,200 3,659 Climbing Indianapolis Center
Wed 12:52:47 PM 39.1958 -81.5814 219° Southwest 275 316 10,700 2,806 Climbing Indianapolis Center
Wed 12:53:49 PM 39.1239 -81.6344 210° Southwest 295 339 13,000 2,049 Climbing Indianapolis Center
Wed 12:54:50 PM 39.0383 -81.7017 211° Southwest 348 400 14,900 2,195 Climbing Indianapolis Center
Wed 12:55:52 PM 38.9289 -81.7875 211° Southwest 384 442 17,500 2,244 Climbing Indianapolis Center
Wed 12:56:00 PM 38.3516 -81.9934 204° Southwest  Level Estimated
Wed 12:56:53 PM 38.8367 -81.8617 212° Southwest 394 453 19,500  Level Indianapolis Center
Wed 12:57:55 PM 38.7425 -81.9356 211° Southwest 400 460 21,700 2,081 Climbing Indianapolis Center
Wed 12:58:57 PM 38.6469 -82.0097 211° Southwest 405 466 23,800 1,902 Climbing Indianapolis Center
Wed 12:59:58 PM 38.5489 -82.0856 211° Southwest 412 474 25,600 1,707 Climbing Indianapolis Center
Wed 01:01:00 PM 38.4458 -82.1644 211° Southwest 429 494 27,300 1,854 Climbing Indianapolis Center
Wed 01:02:01 PM 38.3172 -82.2628 211° Southwest 448 516 29,400 1,854 Climbing Indianapolis Center
Wed 01:03:03 PM 38.1947 -82.3208 200° South 471 542 31,100 1,645 Climbing Indianapolis Center
Wed 01:04:05 PM 38.0558 -82.3650 194° South 480 552 32,800 1,366 Climbing Indianapolis Center
Wed 01:05:06 PM 37.9208 -82.4069 194° South 496 571 33,900 585 Climbing Indianapolis Center
Wed 01:06:08 PM 37.7792 -82.4508 194° South 517 595 34,000 49 Climbing Indianapolis Center
Wed 01:07:09 PM 37.6331 -82.4956 194° South 535 616 34,000  Level Indianapolis Center
Wed 01:08:11 PM 37.4903 -82.5389 194° South 527 606 34,000  Level Indianapolis Center
Wed 01:09:13 PM 37.3500 -82.5831 194° South 520 598 34,000  Level Indianapolis Center
Wed 01:10:14 PM 37.2092 -82.6256 194° South 517 595 34,000  Level Indianapolis Center
Wed 01:11:16 PM 37.0686 -82.6686 194° South 516 594 34,000  Level Indianapolis Center
Wed 01:12:18 PM 36.9269 -82.7097 193° South 513 590 34,000  Level Indianapolis Center
Wed 01:13:19 PM 36.7589 -82.7608 194° South 518 596 34,000  Level Indianapolis Center
Wed 01:14:21 PM 36.6228 -82.8167 198° South 511 588 34,000  Level Indianapolis Center
Wed 01:15:23 PM 36.4942 -82.8906 205° Southwest 506 582 34,000  Level Indianapolis Center
Wed 01:16:24 PM 36.3644 -82.9633 204° Southwest 508 585 34,000  Level Indianapolis Center
Wed 01:17:26 PM 36.2353 -83.0350 204° Southwest 507 583 34,000  Level Indianapolis Center
Wed 01:18:45 PM 36.0550 -83.1372 205° Southwest 512 589 34,000  Level Atlanta Center
Wed 01:19:45 PM 35.9242 -83.2081 204° Southwest 512 589 34,000  Level Atlanta Center
Wed 01:20:45 PM 35.7972 -83.2808 205° Southwest 512 589 34,000  Level Atlanta Center
Wed 01:21:45 PM 35.6664 -83.3511 204° Southwest 512 589 34,000 -500 Level Atlanta Center
Wed 01:22:45 PM 35.5372 -83.4211 204° Southwest 512 589 33,000 -1,550 Descending Atlanta Center
Wed 01:23:45 PM 35.4103 -83.4883 203° Southwest 512 589 30,900 -2,450 Descending Atlanta Center
Wed 01:24:45 PM 35.2772 -83.5606 204° Southwest 512 589 28,100 -2,450 Descending Atlanta Center
Wed 01:25:45 PM 35.1500 -83.6297 204° Southwest 512 589 26,000 -1,050 Descending Atlanta Center
Wed 01:26:45 PM 35.0250 -83.6964 204° Southwest 507 583 26,000  Level Atlanta Center
Wed 01:27:45 PM 34.9125 -83.7550 203° Southwest 501 577 26,000 -350 Level Atlanta Center
Wed 01:28:45 PM 34.7917 -83.8136 202° Southwest 479 551 25,300 -950 Descending Atlanta Center
Wed 01:29:45 PM 34.6853 -83.8744 205° Southwest 474 545 24,100 -2,900 Descending Atlanta Center
Wed 01:30:45 PM 34.5414 -83.9506 204° Southwest 479 551 19,500 -4,500 Descending Atlanta Center
Wed 01:31:45 PM 34.4328 -84.0111 205° Southwest 457 526 15,100 -3,800 Descending Atlanta Center
Wed 01:32:45 PM 34.3306 -84.0361 191° South 422 486 11,900 -2,550 Descending Atlanta Center
Wed 01:33:45 PM 34.2556 -83.9886 152° Southeast 309 356 10,000 -1,950 Descending Atlanta Center
Wed 01:34:45 PM 34.1844 -83.9911 182° South 270 311 8,000 -1,300 Descending Atlanta Center
Wed 01:35:45 PM 34.1367 -84.0414 221° Southwest 239 275 7,400 -1,050 Descending Atlanta Center
Wed 01:36:45 PM 34.0906 -84.0864 219° Southwest 224 258 5,900 -1,500 Descending Atlanta Center
Wed 01:37:45 PM 34.0364 -84.1139 203° Southwest 212 244 4,400 -950 Descending Atlanta Center
Wed 01:38:45 PM 33.9861 -84.1339 198° South 212 244 4,000 -200 Descending Atlanta Center
Wed 01:39:45 PM 33.9278 -84.1514 194° South 212 244 4,000 -150 Level Atlanta Center
Wed 01:40:45 PM 33.8756 -84.1739 200° South 217 250 3,700 -703 Descending Atlanta Center
Wed 01:41:53 PM 33.8333 -84.2167 220° Southwest 169 194 2,500 -563 Descending Atlanta TRACON
Wed 01:42:53 PM 33.8167 -84.2667 248° West 157 181 2,500 -450 Level Atlanta TRACON
Wed 01:43:53 PM 33.8333 -84.3167 292° West 143 165 1,600 -900 Descending Atlanta TRACON
Wed 01:45:00 PM 33.8667 -84.3000 209° Southwest  Level FlightAware Approximate
Wed 01:52:00 PM 33.8756 -84.3020 209° Southwest  Level Estimated
Wed 01:53:00 PM 33.8756 -84.3020 209° Southwest  Level Estimated

Login

Don't have an account? Register now (free) for customized features, flight alerts, and more!